createdAt,value
2022-11-14T00:00:29.720Z,54.28
2022-11-14T00:03:17.055Z,54.39
2022-11-14T00:06:09.189Z,54.48
2022-11-14T00:08:56.451Z,54.60
2022-11-14T00:11:43.951Z,54.65
2022-11-14T00:14:31.360Z,54.47
2022-11-14T00:17:19.223Z,54.48
2022-11-14T00:20:08.870Z,54.40
2022-11-14T00:22:56.380Z,54.53
2022-11-14T00:25:45.510Z,54.67
2022-11-14T00:28:33.363Z,54.59
2022-11-14T00:31:21.061Z,54.52
2022-11-14T00:34:09.020Z,54.52
2022-11-14T00:36:56.188Z,54.70
2022-11-14T00:39:45.037Z,54.68
2022-11-14T00:42:32.122Z,54.83
2022-11-14T00:45:20.753Z,54.84
2022-11-14T00:48:08.147Z,54.65
2022-11-14T00:50:55.508Z,54.59
2022-11-14T00:53:42.679Z,54.73
2022-11-14T00:56:30.441Z,54.78
2022-11-14T00:59:17.664Z,54.88
2022-11-14T01:02:06.411Z,54.63
2022-11-14T01:04:53.639Z,54.83
2022-11-14T01:07:41.129Z,54.91
2022-11-14T01:10:28.232Z,54.78
2022-11-14T01:13:16.142Z,54.90
2022-11-14T01:16:03.689Z,54.74
2022-11-14T01:18:51.088Z,54.92
2022-11-14T01:21:38.470Z,54.87
2022-11-14T01:24:27.319Z,54.68
2022-11-14T01:27:14.538Z,54.75
2022-11-14T01:30:02.291Z,54.77
2022-11-14T01:32:49.310Z,54.67
2022-11-14T01:35:39.178Z,54.74
2022-11-14T01:38:26.803Z,54.99
2022-11-14T01:41:16.195Z,54.80
2022-11-14T01:44:03.448Z,54.64
2022-11-14T01:46:53.761Z,54.80
2022-11-14T01:49:44.848Z,54.71
2022-11-14T01:52:35.482Z,54.58
2022-11-14T01:55:22.948Z,54.73
2022-11-14T01:58:11.601Z,54.71
2022-11-14T02:00:58.838Z,54.61
2022-11-14T02:03:47.719Z,54.78
2022-11-14T02:06:34.850Z,54.66
2022-11-14T02:09:22.350Z,54.70
2022-11-14T02:12:12.120Z,54.88
2022-11-14T02:14:59.380Z,54.75
2022-11-14T02:17:46.650Z,54.61
2022-11-14T02:20:38.589Z,54.83
2022-11-14T02:23:28.070Z,54.76
2022-11-14T02:26:21.658Z,54.85
2022-11-14T02:29:10.579Z,54.60
2022-11-14T02:31:58.139Z,54.63
2022-11-14T02:34:45.360Z,54.71
2022-11-14T02:37:33.402Z,54.56
2022-11-14T02:40:20.690Z,54.63
2022-11-14T02:43:08.081Z,54.62
2022-11-14T02:45:55.347Z,54.64
2022-11-14T02:48:44.250Z,54.68
2022-11-14T02:51:31.178Z,54.54
2022-11-14T02:54:18.638Z,54.82
2022-11-14T02:57:05.779Z,54.85
2022-11-14T02:59:54.988Z,54.76
2022-11-14T03:02:42.037Z,54.63
2022-11-14T03:05:29.447Z,54.65
2022-11-14T03:08:16.368Z,54.67
2022-11-14T03:11:10.927Z,54.70
2022-11-14T03:13:59.434Z,54.63
2022-11-14T03:16:46.979Z,54.86
2022-11-14T03:19:33.969Z,54.73
2022-11-14T03:22:22.457Z,54.77
2022-11-14T03:25:09.751Z,55.09
2022-11-14T03:27:57.012Z,54.81
2022-11-14T03:30:44.137Z,54.78
2022-11-14T03:33:32.339Z,54.66
2022-11-14T03:36:19.648Z,54.85
2022-11-14T03:39:06.651Z,54.80
2022-11-14T03:41:53.999Z,54.79
2022-11-14T03:44:41.530Z,54.82
2022-11-14T03:47:28.709Z,54.85
2022-11-14T03:50:15.979Z,54.87
2022-11-14T03:53:03.139Z,54.78
2022-11-14T03:55:51.649Z,54.89
2022-11-14T03:58:38.727Z,54.71
2022-11-14T04:01:26.193Z,54.96
2022-11-14T04:04:13.811Z,54.88
2022-11-14T04:07:01.117Z,54.79
2022-11-14T04:09:48.239Z,54.72
2022-11-14T04:12:35.719Z,54.80
2022-11-14T04:15:23.523Z,54.84
2022-11-14T04:18:11.955Z,54.75
2022-11-14T04:20:58.892Z,54.80
2022-11-14T04:23:46.609Z,54.95
2022-11-14T04:26:33.600Z,54.89
2022-11-14T04:29:21.226Z,54.93
2022-11-14T04:32:08.242Z,54.89
2022-11-14T04:34:55.497Z,54.89
2022-11-14T04:37:42.613Z,54.84
2022-11-14T04:40:30.012Z,54.66
2022-11-14T04:43:17.438Z,54.54
2022-11-14T04:46:04.795Z,54.51
2022-11-14T04:48:51.893Z,54.42
2022-11-14T04:51:39.610Z,54.21
2022-11-14T04:54:27.086Z,54.00
2022-11-14T04:57:14.449Z,53.77
2022-11-14T05:00:01.856Z,53.63
2022-11-14T05:02:49.459Z,53.41
2022-11-14T05:05:41.599Z,53.13
2022-11-14T05:08:29.956Z,53.18
2022-11-14T05:11:18.176Z,53.08
2022-11-14T05:14:07.048Z,53.24
2022-11-14T05:16:54.249Z,53.10
2022-11-14T05:19:42.127Z,53.23
2022-11-14T05:22:29.408Z,53.30
2022-11-14T05:25:16.882Z,53.26
2022-11-14T05:28:05.028Z,53.29
2022-11-14T05:30:52.799Z,53.30
2022-11-14T05:33:39.919Z,53.31
2022-11-14T05:36:27.528Z,53.17
2022-11-14T05:39:14.559Z,53.26
2022-11-14T05:42:06.640Z,53.32
2022-11-14T05:44:53.931Z,53.44
2022-11-14T05:47:41.293Z,53.58
2022-11-14T05:50:28.769Z,53.61
2022-11-14T05:53:16.479Z,53.52
2022-11-14T05:56:10.199Z,53.81
2022-11-14T05:58:58.981Z,53.87
2022-11-14T06:01:46.243Z,54.03
2022-11-14T06:04:34.340Z,53.78
2022-11-14T06:07:21.657Z,53.78
2022-11-14T06:10:09.594Z,54.09
2022-11-14T06:12:57.122Z,54.07
2022-11-14T06:15:45.021Z,54.10
2022-11-14T06:18:32.834Z,54.24
2022-11-14T06:21:23.792Z,54.20
2022-11-14T06:24:11.079Z,54.14
2022-11-14T06:26:58.912Z,54.53
2022-11-14T06:29:46.152Z,54.33
2022-11-14T06:32:33.578Z,54.31
2022-11-14T06:35:20.883Z,54.33
2022-11-14T06:38:09.651Z,54.33
2022-11-14T06:41:05.677Z,54.47
2022-11-14T06:43:54.819Z,54.47
2022-11-14T06:46:42.499Z,54.41
2022-11-14T06:49:31.941Z,54.52
2022-11-14T06:52:20.843Z,54.59
2022-11-14T06:55:08.681Z,54.62
2022-11-14T06:57:56.089Z,54.66
2022-11-14T07:00:43.479Z,54.84
2022-11-14T07:03:30.941Z,54.84
2022-11-14T07:06:21.741Z,54.88
2022-11-14T07:09:11.250Z,54.57
2022-11-14T07:11:58.600Z,54.72
2022-11-14T07:14:45.562Z,54.95
2022-11-14T07:17:36.769Z,54.76
2022-11-14T07:20:23.859Z,54.94
2022-11-14T07:23:11.437Z,54.83
2022-11-14T07:26:04.970Z,54.86
2022-11-14T07:28:59.257Z,55.02
2022-11-14T07:31:49.208Z,54.86
2022-11-14T07:34:36.781Z,55.08
2022-11-14T07:37:24.721Z,54.84
2022-11-14T07:40:12.848Z,54.98
2022-11-14T07:43:01.250Z,55.53
2022-11-14T07:45:50.057Z,55.54
2022-11-14T07:48:37.189Z,55.60
2022-11-14T07:51:24.458Z,55.65
2022-11-14T07:54:12.423Z,55.69
2022-11-14T07:57:01.032Z,55.67
2022-11-14T07:59:48.298Z,55.66
2022-11-14T08:02:35.604Z,55.88
2022-11-14T08:05:22.696Z,56.08
2022-11-14T08:08:10.128Z,56.00
2022-11-14T08:10:58.797Z,56.13
2022-11-14T08:13:46.296Z,56.12
2022-11-14T08:16:33.452Z,56.26
2022-11-14T08:19:20.589Z,56.25
2022-11-14T08:22:10.439Z,56.22
2022-11-14T08:24:58.550Z,56.61
2022-11-14T08:27:45.559Z,56.65
2022-11-14T08:30:34.118Z,56.42
2022-11-14T08:33:21.150Z,56.47
2022-11-14T08:36:10.542Z,56.74
2022-11-14T08:39:01.480Z,56.51
2022-11-14T08:41:49.529Z,56.52
2022-11-14T08:44:36.626Z,56.63
2022-11-14T08:47:23.979Z,56.54
2022-11-14T08:50:10.818Z,56.73
2022-11-14T08:52:59.736Z,56.47
2022-11-14T08:55:47.668Z,56.45
2022-11-14T08:58:35.181Z,56.45
2022-11-14T09:01:22.247Z,56.42
2022-11-14T09:04:10.101Z,56.57
2022-11-14T09:06:59.207Z,56.38
2022-11-14T09:09:46.428Z,56.48
2022-11-14T09:12:33.976Z,56.52
2022-11-14T09:15:21.239Z,56.45
2022-11-14T09:18:09.136Z,56.81
2022-11-14T09:21:08.687Z,56.61
2022-11-14T09:24:00.516Z,56.40
2022-11-14T09:26:56.394Z,56.63
2022-11-14T09:29:44.345Z,56.80
2022-11-14T09:32:31.688Z,56.70
2022-11-14T09:35:18.787Z,56.80
2022-11-14T09:38:11.626Z,56.79
2022-11-14T09:41:10.157Z,56.79
2022-11-14T09:44:42.401Z,56.96
2022-11-14T09:47:34.228Z,56.69
2022-11-14T09:50:28.630Z,56.66
2022-11-14T09:53:31.737Z,56.46
2022-11-14T09:56:26.696Z,56.65
2022-11-14T09:59:14.288Z,56.47
2022-11-14T10:02:16.212Z,56.61
2022-11-14T10:05:25.260Z,56.66
2022-11-14T10:08:48.387Z,56.69
2022-11-14T10:12:41.718Z,56.56
2022-11-14T10:15:59.856Z,56.60
2022-11-14T10:18:55.007Z,56.30
2022-11-14T10:21:57.627Z,56.38
2022-11-14T10:25:23.427Z,56.48
2022-11-14T10:28:55.585Z,56.26
2022-11-14T10:31:45.885Z,56.29
2022-11-14T10:35:13.279Z,56.20
2022-11-14T10:38:46.908Z,56.17
2022-11-14T10:41:55.973Z,55.87
2022-11-14T10:45:12.789Z,55.68
2022-11-14T10:48:04.348Z,56.13
2022-11-14T10:51:20.826Z,55.94
2022-11-14T10:54:42.721Z,55.89
2022-11-14T10:57:30.274Z,56.00
2022-11-14T11:00:25.627Z,55.72
2022-11-14T11:03:12.948Z,55.66
2022-11-14T11:06:03.523Z,55.69
2022-11-14T11:09:09.147Z,55.43
2022-11-14T11:11:59.599Z,55.57
2022-11-14T11:14:48.538Z,55.58
2022-11-14T11:17:41.771Z,55.63
2022-11-14T11:20:36.348Z,55.44
2022-11-14T11:23:26.902Z,55.30
2022-11-14T11:26:32.985Z,55.13
2022-11-14T11:29:20.681Z,54.77
2022-11-14T11:32:09.810Z,54.67
2022-11-14T11:34:58.972Z,54.49
2022-11-14T11:37:59.577Z,54.08
2022-11-14T11:40:52.671Z,53.74
2022-11-14T11:44:02.292Z,53.51
2022-11-14T11:47:01.419Z,53.73
2022-11-14T11:49:54.520Z,53.78
2022-11-14T11:53:29.387Z,53.49
2022-11-14T11:56:30.940Z,53.41
2022-11-14T11:59:42.598Z,53.13
2022-11-14T12:02:30.059Z,53.33
2022-11-14T12:05:46.871Z,53.16
2022-11-14T12:09:04.967Z,53.24
2022-11-14T12:12:02.168Z,53.17
2022-11-14T12:15:27.718Z,53.30
2022-11-14T12:18:54.567Z,53.29
2022-11-14T12:22:36.636Z,53.42
2022-11-14T12:26:07.197Z,53.53
2022-11-14T12:29:56.701Z,53.61
2022-11-14T12:33:09.100Z,53.44
2022-11-14T12:36:08.787Z,53.32
2022-11-14T12:38:56.482Z,53.19
2022-11-14T12:41:43.900Z,53.28
2022-11-14T12:44:34.206Z,53.24
2022-11-14T12:47:24.356Z,53.19
2022-11-14T12:50:41.036Z,53.13
2022-11-14T12:53:36.818Z,53.12
2022-11-14T12:56:33.141Z,52.88
2022-11-14T12:59:36.298Z,52.90
2022-11-14T13:02:49.919Z,53.09
2022-11-14T13:06:04.687Z,53.17
2022-11-14T13:09:35.242Z,53.34
2022-11-14T13:12:53.623Z,53.46
2022-11-14T13:16:12.381Z,53.10
2022-11-14T13:19:30.312Z,53.30
2022-11-14T13:22:46.682Z,53.13
2022-11-14T13:25:34.211Z,53.26
2022-11-14T13:28:36.774Z,53.11
2022-11-14T13:31:46.060Z,53.04
2022-11-14T13:34:47.441Z,52.89
2022-11-14T13:37:55.961Z,52.88
2022-11-14T13:41:08.221Z,52.80
2022-11-14T13:44:39.842Z,52.94
2022-11-14T13:48:02.001Z,52.57
2022-11-14T13:50:52.900Z,52.70
2022-11-14T13:53:40.801Z,52.86
2022-11-14T13:56:54.103Z,52.91
2022-11-14T13:59:55.677Z,52.85
2022-11-14T14:03:15.989Z,52.79
2022-11-14T14:06:52.516Z,52.78
2022-11-14T14:10:33.172Z,52.83
2022-11-14T14:13:33.853Z,52.80
2022-11-14T14:16:37.041Z,52.88
2022-11-14T14:19:45.466Z,52.99
2022-11-14T14:23:02.222Z,52.51
2022-11-14T14:25:57.402Z,52.47
2022-11-14T14:28:50.802Z,52.58
2022-11-14T14:31:39.862Z,52.66
2022-11-14T14:34:31.640Z,52.58
2022-11-14T14:37:22.141Z,52.75
2022-11-14T14:40:34.534Z,52.55
2022-11-14T14:43:31.801Z,52.38
2022-11-14T14:46:30.952Z,52.52
2022-11-14T14:49:32.605Z,52.34
2022-11-14T14:52:31.470Z,52.54
2022-11-14T14:55:28.926Z,52.62
2022-11-14T14:58:28.421Z,52.43
2022-11-14T15:01:34.587Z,52.69
2022-11-14T15:04:23.823Z,52.42
2022-11-14T15:07:21.686Z,52.69
2022-11-14T15:10:18.742Z,52.41
2022-11-14T15:13:06.027Z,52.43
2022-11-14T15:15:53.112Z,52.35
2022-11-14T15:18:40.481Z,52.44
2022-11-14T15:21:29.784Z,52.42
2022-11-14T15:24:20.003Z,52.51
2022-11-14T15:27:19.846Z,52.38
2022-11-14T15:30:19.830Z,52.46
2022-11-14T15:33:28.442Z,52.54
2022-11-14T15:36:18.170Z,52.81
2022-11-14T15:39:29.223Z,52.93
2022-11-14T15:42:24.432Z,52.74
2022-11-14T15:45:28.165Z,52.59
2022-11-14T15:48:18.457Z,52.62
2022-11-14T15:51:05.853Z,52.61
2022-11-14T15:53:54.860Z,52.49
2022-11-14T15:56:41.874Z,52.22
2022-11-14T15:59:31.443Z,52.35
2022-11-14T16:02:23.535Z,52.67
2022-11-14T16:05:14.443Z,52.63
2022-11-14T16:08:01.712Z,52.54
2022-11-14T16:10:49.181Z,52.58
2022-11-14T16:13:36.612Z,52.57
2022-11-14T16:16:23.991Z,52.70
2022-11-14T16:19:15.910Z,53.08
2022-11-14T16:22:04.721Z,52.92
2022-11-14T16:24:51.743Z,53.19
2022-11-14T16:27:40.243Z,53.22
2022-11-14T16:30:27.163Z,53.20
2022-11-14T16:33:15.722Z,53.21
2022-11-14T16:36:02.835Z,53.19
2022-11-14T16:38:52.387Z,53.38
2022-11-14T16:41:40.391Z,53.47
2022-11-14T16:44:27.756Z,53.50
2022-11-14T16:47:19.777Z,53.44
2022-11-14T16:50:07.768Z,53.58
2022-11-14T16:52:55.172Z,53.53
2022-11-14T16:55:45.622Z,53.67
2022-11-14T16:58:32.518Z,53.55
2022-11-14T17:01:21.352Z,53.71
2022-11-14T17:04:09.120Z,53.56
2022-11-14T17:06:56.605Z,53.67
2022-11-14T17:09:43.591Z,53.76
2022-11-14T17:12:32.410Z,53.72
2022-11-14T17:15:19.784Z,53.75
2022-11-14T17:18:07.285Z,53.62
2022-11-14T17:20:54.344Z,53.54
2022-11-14T17:23:41.921Z,53.55
2022-11-14T17:26:29.524Z,53.54
2022-11-14T17:29:17.175Z,53.42
2022-11-14T17:32:05.415Z,53.13
2022-11-14T17:34:53.135Z,52.75
2022-11-14T17:37:39.970Z,52.68
2022-11-14T17:40:29.879Z,52.55
2022-11-14T17:43:17.699Z,52.80
2022-11-14T17:46:09.858Z,52.31
2022-11-14T17:49:01.582Z,52.25
2022-11-14T17:51:49.651Z,52.39
2022-11-14T17:54:38.106Z,52.45
2022-11-14T17:57:25.290Z,52.50
2022-11-14T18:00:13.300Z,52.25
2022-11-14T18:03:01.070Z,52.45
2022-11-14T18:05:48.472Z,52.44
2022-11-14T18:08:36.365Z,52.43
2022-11-14T18:11:24.326Z,52.74
2022-11-14T18:14:12.939Z,52.39
2022-11-14T18:17:13.994Z,52.53
2022-11-14T18:20:01.500Z,52.42
2022-11-14T18:22:48.875Z,52.70
2022-11-14T18:25:36.379Z,52.81
2022-11-14T18:28:24.318Z,52.84
2022-11-14T18:31:13.675Z,53.00
2022-11-14T18:34:03.016Z,53.00
2022-11-14T18:36:51.795Z,53.00
2022-11-14T18:39:39.194Z,53.17
2022-11-14T18:42:26.620Z,53.23
2022-11-14T18:45:13.877Z,53.43
2022-11-14T18:48:01.679Z,53.65
2022-11-14T18:50:49.601Z,53.70
2022-11-14T18:53:37.216Z,53.73
2022-11-14T18:56:25.915Z,53.74
2022-11-14T18:59:14.941Z,53.47
2022-11-14T19:02:02.209Z,53.58
2022-11-14T19:04:49.735Z,53.11
2022-11-14T19:07:36.865Z,52.80
2022-11-14T19:10:24.502Z,52.74
2022-11-14T19:13:11.632Z,52.54
2022-11-14T19:16:06.565Z,52.45
2022-11-14T19:18:54.872Z,52.38
2022-11-14T19:21:42.641Z,52.39
2022-11-14T19:24:29.991Z,52.48
2022-11-14T19:27:17.609Z,52.59
2022-11-14T19:30:05.020Z,52.73
2022-11-14T19:32:52.601Z,52.73
2022-11-14T19:35:40.142Z,52.82
2022-11-14T19:38:28.675Z,53.13
2022-11-14T19:41:20.655Z,52.87
2022-11-14T19:44:09.381Z,53.03
2022-11-14T19:46:56.583Z,53.24
2022-11-14T19:49:44.251Z,53.18
2022-11-14T19:52:31.693Z,53.24
2022-11-14T19:55:20.710Z,53.22
2022-11-14T19:58:08.071Z,53.45
2022-11-14T20:01:10.631Z,53.45
2022-11-14T20:04:01.774Z,53.27
2022-11-14T20:06:49.110Z,53.45
2022-11-14T20:09:36.420Z,53.69
2022-11-14T20:12:24.083Z,53.65
2022-11-14T20:15:11.613Z,53.84
2022-11-14T20:17:59.019Z,53.79
2022-11-14T20:20:46.173Z,53.87
2022-11-14T20:23:37.711Z,54.10
2022-11-14T20:26:25.644Z,53.95
2022-11-14T20:29:13.243Z,53.97
2022-11-14T20:32:00.970Z,54.16
2022-11-14T20:34:50.922Z,53.92
2022-11-14T20:37:38.460Z,54.15
2022-11-14T20:40:27.523Z,54.08
2022-11-14T20:43:14.940Z,54.20
2022-11-14T20:46:15.241Z,54.28
2022-11-14T20:49:04.696Z,54.15
2022-11-14T20:51:53.460Z,54.03
2022-11-14T20:54:41.208Z,53.94
2022-11-14T20:57:30.150Z,54.17
2022-11-14T21:00:19.653Z,54.04
2022-11-14T21:03:09.972Z,54.01
2022-11-14T21:05:58.650Z,53.95
2022-11-14T21:08:48.421Z,54.00
2022-11-14T21:11:35.873Z,53.96
2022-11-14T21:14:23.291Z,53.83
2022-11-14T21:17:10.422Z,53.77
2022-11-14T21:19:58.831Z,53.88
2022-11-14T21:22:46.091Z,53.67
2022-11-14T21:25:35.601Z,53.55
2022-11-14T21:28:22.497Z,53.55
2022-11-14T21:31:25.891Z,53.63
2022-11-14T21:34:15.557Z,53.40
2022-11-14T21:37:02.831Z,53.64
2022-11-14T21:39:50.832Z,53.37
2022-11-14T21:42:40.135Z,53.40
2022-11-14T21:45:27.285Z,53.25
2022-11-14T21:48:14.728Z,53.69
2022-11-14T21:51:16.785Z,53.06
2022-11-14T21:54:05.548Z,53.24
2022-11-14T21:56:52.579Z,53.30
2022-11-14T21:59:40.288Z,53.39
2022-11-14T22:02:46.100Z,53.42
2022-11-14T22:05:33.600Z,53.21
2022-11-14T22:08:20.587Z,53.49
2022-11-14T22:11:07.940Z,53.40
2022-11-14T22:13:55.200Z,53.14
2022-11-14T22:16:42.398Z,53.29
2022-11-14T22:19:29.518Z,53.33
2022-11-14T22:22:16.925Z,53.23
2022-11-14T22:25:03.980Z,53.37
2022-11-14T22:27:55.810Z,53.23
2022-11-14T22:30:42.790Z,53.38
2022-11-14T22:33:35.338Z,53.85
2022-11-14T22:36:24.480Z,53.46
2022-11-14T22:39:11.740Z,53.45
2022-11-14T22:41:58.551Z,53.18
2022-11-14T22:44:46.138Z,53.37
2022-11-14T22:47:33.142Z,53.14
2022-11-14T22:50:20.410Z,53.37
2022-11-14T22:53:07.939Z,53.25
2022-11-14T22:55:55.570Z,53.15
2022-11-14T22:58:43.008Z,53.08
2022-11-14T23:01:32.539Z,53.17
2022-11-14T23:04:19.869Z,53.10
2022-11-14T23:07:07.688Z,52.96
2022-11-14T23:09:54.752Z,52.77
2022-11-14T23:12:43.467Z,53.00
2022-11-14T23:15:30.469Z,52.92
2022-11-14T23:18:18.009Z,53.05
2022-11-14T23:21:16.597Z,53.11
2022-11-14T23:24:07.628Z,52.75
2022-11-14T23:26:54.987Z,52.86
2022-11-14T23:29:43.348Z,52.87
2022-11-14T23:32:30.457Z,52.88
2022-11-14T23:35:17.757Z,52.74
2022-11-14T23:38:05.210Z,52.77
2022-11-14T23:40:57.590Z,52.69
2022-11-14T23:43:44.889Z,52.72
2022-11-14T23:46:32.229Z,52.67
2022-11-14T23:49:19.433Z,52.69
2022-11-14T23:52:06.926Z,52.51
2022-11-14T23:54:54.180Z,52.79
2022-11-14T23:57:41.546Z,52.76
